Station: EBSP - 20/10/2019 07:21Z (il y a 8 minutes)
EBSP 200720Z AUTO 14009KT 9999 // OVC016/// 10/09 Q1007
Vent du 140º - 9 kt
Visibilité > 10 km
Ciel couvert à 1600 pieds
Température: +10ºC - Point de rosée: +09ºC - QNH: 1007 hPa